EST,Max TemperatureF,Mean TemperatureF,Min TemperatureF,Max Dew PointF,MeanDew PointF,Min DewpointF,Max Humidity, Mean Humidity, Min Humidity, Max Sea Level PressureIn, Mean Sea Level PressureIn, Min Sea Level PressureIn, Max VisibilityMiles, Mean VisibilityMiles, Min VisibilityMiles, Max Wind SpeedMPH, Mean Wind SpeedMPH, Max Gust SpeedMPH,PrecipitationIn, CloudCover, Events, WindDirDegrees
2013-2-1,33,28,23,16,7,1,59,41,31,30.08,29.81,29.59,10,10,10,22,16,30,0.00,1,,277
2013-2-2,28,23,18,10,4,1,52,41,32,30.25,30.14,30.06,10,10,10,10,7,16,0.00,3,,249
2013-2-3,28,24,19,20,18,12,86,75,55,30.06,29.89,29.74,10,5,2,9,5,,0.00,8,Snow,350
2013-2-4,30,24,19,19,7,2,78,49,32,29.94,29.80,29.73,10,10,10,21,10,32,0.00,1,,268
2013-2-5,30,26,21,20,8,4,81,50,38,30.04,29.99,29.95,10,10,3,10,6,,0.00,5,Snow,268
2013-2-6,37,29,21,24,18,2,93,70,37,30.31,30.01,29.94,10,7,2,14,2,24,0.01,6,Snow,283
2013-2-7,28,22,17,7,-3,-7,46,34,22,30.55,30.48,30.33,10,10,10,14,5,20,0.00,3,,349
2013-2-8,30,24,17,27,16,9,89,79,51,30.50,30.13,29.68,10,4,0,25,9,36,0.25,8,Fog-Snow,24
2013-2-9,21,19,17,18,11,-1,86,72,45,30.20,29.80,29.62,10,3,0,71,23,31,0.22,5,Fog-Snow,326
2013-2-10,37,24,12,9,0,-4,74,42,18,30.40,30.35,30.22,10,10,10,13,6,18,0.00,0,,306
2013-2-11,39,26,14,36,28,6,100,85,58,30.35,29.89,29.62,10,4,0,6,1,,0.24,7,Fog-Rain-Snow,272
2013-2-12,44,38,33,32,28,24,93,66,45,29.87,29.71,29.60,10,9,2,21,10,28,0.00,6,,249
2013-2-13,42,35,28,25,22,20,76,59,41,29.87,29.81,29.73,10,10,10,12,6,,0.00,2,,274
2013-2-14,43,36,30,24,21,17,72,55,37,30.00,29.89,29.74,10,10,10,9,4,,0.00,3,,355
2013-2-15,51,40,28,33,28,21,85,65,44,30.00,29.96,29.90,10,10,5,14,6,22,0.00,1,,206
2013-2-16,39,36,30,30,25,14,89,69,48,29.97,29.90,29.74,10,7,2,12,4,,0.00,8,Snow,340
2013-2-17,30,24,17,16,9,-1,81,61,37,29.72,29.49,29.38,10,4,0,22,14,41,0.02,8,Snow,311
2013-2-18,30,22,15,2,-2,-6,49,36,21,30.15,29.96,29.69,10,10,10,26,18,40,0.00,1,,278
2013-2-19,46,35,24,41,27,3,93,67,34,30.17,29.84,29.58,10,8,0,14,6,47,0.17,6,Fog-Rain,199
2013-2-20,41,34,27,39,21,11,93,60,40,29.77,29.63,29.54,10,10,3,21,11,30,0.00,6,Rain,262
2013-2-21,30,28,25,14,11,8,60,51,43,30.20,29.90,29.77,10,10,10,17,12,30,0.00,3,,299
2013-2-22,39,32,25,24,18,14,70,57,39,30.40,30.35,30.26,10,10,10,14,6,21,0.00,1,,13
2013-2-23,39,36,32,32,28,24,92,76,65,30.34,30.15,29.95,10,8,2,8,2,,0.03,8,Snow,73
2013-2-24,37,34,30,34,30,28,93,88,81,29.93,29.80,29.72,10,2,0,16,10,22,0.29,8,Fog-Rain-Snow,15
2013-2-25,39,34,30,31,28,24,93,77,55,30.26,30.10,29.91,10,9,2,8,4,,0.00,7,Snow,4
2013-2-26,42,36,30,32,28,24,89,73,51,30.36,30.30,30.20,10,8,3,7,2,,0.00,5,,93
2013-2-27,42,40,37,38,34,28,93,84,68,30.19,29.86,29.57,10,5,2,21,12,36,1.11,8,Rain,68
2013-2-28,46,40,35,34,32,30,89,77,58,29.65,29.59,29.54,10,10,10,10,5,,0.00,7,,295